Flight Track Log - Related Links

Times and Time Zones

All times are in EDT time to prevent confusion due to time zone crossing. See the RPA3392 flight status page for this flight to view local times or setup timezone preferences in your user account.

Time Position Orientation Groundspeed Altitude Reporting Facility
EDT Latitude Longitude Course Direction KTS MPH feet Rate Location/Type
05:49PM 44.9000 -93.2333 117° Southeast 159 183 1,900  Level Minneapolis TRACON
05:50PM 44.9597 -93.2425 354° North 196 226 3,100 1,524 Climbing Minneapolis Center
05:51PM 44.7653 -92.7962 111° Southeast  Level Estimated
05:51PM 45.0211 -93.2125 19° North 257 296 5,100  Level Minneapolis Center
05:52PM 44.7260 -92.6547 113° Southeast  Level Estimated
05:52PM 44.9978 -93.1133 108° East 276 318 7,600  Level Minneapolis Center
05:53PM 44.6689 -92.5259 122° Southeast  Level FlightAware Approximate
05:53PM 44.9533 -93.0206 124° Southeast 283 326 10,100  Level Minneapolis Center
05:54PM 44.6166 -92.3833 117° Southeast  Level FlightAware Approximate
05:54PM 44.9047 -92.9194 124° Southeast 309 356 11,600  Level Minneapolis Center
05:55PM 44.8417 -92.7869 124° Southeast 337 388 13,900 1,984 Climbing Minneapolis Center
05:56PM 44.7944 -92.6703 120° Southeast 342 394 15,700 1,694 Climbing Minneapolis Center
05:57PM 44.7450 -92.5494 120° Southeast 356 410 17,400 1,548 Climbing Minneapolis Center
05:58PM 44.6947 -92.4275 120° Southeast 360 414 18,900 1,355 Climbing Minneapolis Center
05:59PM 44.6419 -92.3014 120° Southeast 366 421 20,200 1,306 Climbing Minneapolis Center
06:00PM 44.5889 -92.1711 120° Southeast 377 434 21,600 1,355 Climbing Minneapolis Center
06:01PM 44.5228 -92.0119 120° Southeast 390 449 23,000 1,200 Climbing Minneapolis Center
06:02PM 44.4661 -91.8761 120° Southeast 402 463 24,100 1,104 Climbing Minneapolis Center
06:03PM 44.4083 -91.7386 120° Southeast 410 472 25,300 1,065 Climbing Minneapolis Center
06:04PM 44.3489 -91.5994 121° Southeast 415 478 26,300 1,065 Climbing Minneapolis Center
06:05PM 44.2897 -91.4594 121° Southeast 420 483 27,500 1,161 Climbing Minneapolis Center
06:06PM 44.2200 -91.2922 120° Southeast 426 490 28,700 1,065 Climbing Minneapolis Center
06:08PM 44.1583 -91.1492 121° Southeast 431 496 29,700 871 Climbing Minneapolis Center
06:09PM 44.0972 -91.0047 120° Southeast 435 501 30,500 864 Climbing Minneapolis Center
06:10PM 44.0331 -90.8569 121° Southeast 445 512 31,500 912 Climbing Minneapolis Center
06:11PM 43.9700 -90.7117 121° Southeast 442 509 32,400 871 Climbing Minneapolis Center
06:12PM 43.8969 -90.5394 120° Southeast 442 509 33,300 774 Climbing Minneapolis Center
06:13PM 43.8322 -90.3925 121° Southeast 445 512 34,000 629 Climbing Minneapolis Center
06:14PM 43.7656 -90.2444 122° Southeast 448 516 34,600 484 Climbing Minneapolis Center
06:15PM 43.7008 -90.0997 122° Southeast 447 514 35,000 194 Climbing Minneapolis Center
06:16PM 43.6367 -89.9536 121° Southeast 447 514 35,000  Level Minneapolis Center
06:17PM 43.5608 -89.7831 121° Southeast 447 514 35,000  Level Minneapolis Center
06:18PM 43.5100 -89.6258 114° Southeast 449 517 35,000  Level Minneapolis Center
06:19PM 43.4589 -89.4403 111° Southeast 446 513 35,000  Level Chicago Center
06:20PM 43.4119 -89.2819 112° Southeast 447 514 35,000  Level Chicago Center
06:21PM 43.3661 -89.1236 112° Southeast 448 516 35,000  Level Chicago Center
06:22PM 43.3194 -88.9664 112° Southeast 446 513 35,000  Level Chicago Center
06:23PM 43.2728 -88.8100 112° Southeast 446 513 35,000  Level Chicago Center
06:24PM 43.2178 -88.6264 112° Southeast 450 518 35,000  Level Chicago Center
06:25PM 43.1708 -88.4681 112° Southeast 452 520 35,000  Level Chicago Center
06:26PM 43.1242 -88.3092 112° Southeast 454 522 35,000  Level Chicago Center
06:27PM 43.1008 -88.1367 100° East 465 535 35,000  Level Chicago Center
06:28PM 43.0792 -87.9336 98° East 464 534 35,000  Level Chicago Center
06:29PM 43.0594 -87.7581 99° East 467 537 35,000  Level Chicago Center
06:30PM 43.0403 -87.5836 98° East 467 537 35,000  Level Chicago Center
06:31PM 43.0206 -87.4089 99° East 466 536 35,000  Level Chicago Center
06:32PM 43.0014 -87.2439 99° East 467 537 35,000  Level Chicago Center
06:33PM 42.9772 -87.0328 99° East 471 542 35,000  Level Chicago Center
06:34PM 42.9567 -86.8564 99° East 473 544 35,000  Level Chicago Center
06:36PM 42.9356 -86.6806 99° East 472 543 35,000  Level Chicago Center
06:37PM 42.9139 -86.5039 99° East 476 548 35,000  Level Chicago Center
06:38PM 42.8919 -86.3283 100° East 475 547 35,000  Level Chicago Center
06:39PM 42.8653 -86.1181 100° East 477 549 35,000  Level Chicago Center
06:40PM 42.8425 -85.9439 100° East 477 549 35,000  Level Chicago Center
06:41PM 42.8211 -85.7681 99° East 479 551 35,000  Level Chicago Center
06:42PM 42.7992 -85.5875 99° East 481 554 35,000  Level Chicago Center
06:43PM 42.7489 -85.3889 109° East 475 547 35,000  Level Chicago Center
06:44PM 42.6936 -85.2292 115° Southeast 469 540 35,000  Level Chicago Center
06:45PM 42.6364 -85.0697 116° Southeast 471 542 35,000  Level Chicago Center
06:46PM 42.5792 -84.9108 116° Southeast 471 542 35,000  Level Chicago Center
06:47PM 42.5225 -84.7489 115° Southeast 475 547 35,000  Level Chicago Center
06:48PM 42.4533 -84.5558 116° Southeast 475 547 35,000  Level Chicago Center
06:49PM 42.3956 -84.3950 116° Southeast 476 548 35,000  Level Chicago Center
06:49PM 42.3756 -84.3497 121° Southeast 470 541 35,000  Level Cleveland Center
06:50PM 42.3361 -84.2342 115° Southeast 479 551 35,000  Level Chicago Center
06:51PM 42.2758 -84.0725 117° Southeast 482 555 35,000  Level Chicago Center
06:52PM 42.2161 -83.9097 116° Southeast 483 556 35,000  Level Chicago Center
06:53PM 42.1558 -83.7461 116° Southeast 487 560 35,000  Level Chicago Center
06:54PM 42.0825 -83.5506 117° Southeast 488 562 35,000  Level Chicago Center
06:55PM 42.0072 -83.3806 121° Southeast 483 556 35,000  Level Cleveland Center
06:56PM 41.9250 -83.2344 127° Southeast 483 556 35,000  Level Cleveland Center
06:57PM 41.8572 -83.1006 124° Southeast 483 556 35,000  Level Cleveland Center
06:58PM 41.7811 -82.9528 125° Southeast 483 556 35,000  Level Cleveland Center
06:59PM 41.7008 -82.8053 126° Southeast 483 556 35,000  Level Cleveland Center
07:00PM 41.6183 -82.6469 125° Southeast 483 556 35,000  Level Cleveland Center
07:01PM 41.5353 -82.5028 128° Southeast 489 563 35,000  Level Cleveland Center
07:02PM 41.4392 -82.3892 138° Southeast 471 542 35,000  Level Cleveland Center
07:03PM 41.3389 -82.2728 139° Southeast 478 550 35,000  Level Cleveland Center
07:04PM 41.2403 -82.1628 140° Southeast 473 544 35,000  Level Cleveland Center
07:05PM 41.1417 -82.0500 139° Southeast 467 537 35,000  Level Cleveland Center
07:06PM 41.0389 -81.9403 141° Southeast 467 537 35,000  Level Cleveland Center
07:07PM 40.9422 -81.8283 139° Southeast 472 543 35,000  Level Cleveland Center
07:08PM 40.8411 -81.7167 140° Southeast 467 537 35,000  Level Cleveland Center
07:09PM 40.7422 -81.6053 140° Southeast 467 537 35,000  Level Cleveland Center
07:10PM 40.6511 -81.5081 141° Southeast 467 537 35,000  Level Cleveland Center
07:11PM 40.5481 -81.3864 138° Southeast 467 537 35,000  Level Cleveland Center
07:12PM 40.4633 -81.2544 130° Southeast 457 526 35,000  Level Cleveland Center
07:13PM 40.3828 -81.1144 127° Southeast 468 539 35,000  Level Cleveland Center
07:14PM 40.3019 -80.9750 127° Southeast 479 551 35,000 -50 Level Cleveland Center
07:15PM 40.2211 -80.8386 128° Southeast 479 551 34,900 -350 Descending Cleveland Center
07:16PM 40.1381 -80.6972 128° Southeast 479 551 34,300 -450 Descending Cleveland Center
07:17PM 40.0547 -80.5586 128° Southeast 489 563 34,000 -150 Descending Cleveland Center
07:18PM 39.9711 -80.4178 128° Southeast 489 563 34,000  Level Cleveland Center
07:19PM 39.8875 -80.2828 129° Southeast 489 563 34,000 -446 Level Cleveland Center
07:22PM 39.6931 -79.9578 128° Southeast 484 557 32,500 -650 Descending Washington Center
07:23PM 39.6103 -79.8206 128° Southeast 484 557 31,800 -958 Descending Washington Center
07:24PM 39.5361 -79.6792 124° Southeast 479 551 30,600 -1,169 Descending Washington Center
07:25PM 39.4892 -79.5203 111° Southeast 468 539 29,500 -1,350 Descending Washington Center
07:26PM 39.4483 -79.3622 108° East 463 533 27,900 -1,700 Descending Washington Center
07:27PM 39.4069 -79.2231 111° Southeast 463 533 26,100 -1,967 Descending Washington Center
07:28PM 39.3672 -79.0814 110° East 443 510 23,900 -1,967 Descending Washington Center
07:29PM 39.3275 -78.9400 110° East 428 493 22,100 -1,678 Descending Washington Center
07:30PM 39.2894 -78.8069 110° East 410 472 20,600 -1,462 Descending Washington Center
07:31PM 39.2514 -78.6711 110° East 405 466 19,200 -1,574 Descending Washington Center
07:32PM 39.2150 -78.5383 109° East 400 460 17,400 -2,083 Descending Washington Center
07:33PM 39.1744 -78.4056 111° Southeast 394 453 15,000 -1,220 Descending Washington Center
07:34PM 39.1419 -78.2758 108° East 394 453 15,000  Level Washington Center
07:35PM 39.1072 -78.1461 109° East 389 448 15,000  Level Washington Center
07:36PM 39.0744 -78.0142 108° East 389 448 15,000 -1,091 Level Washington Center
07:37PM 39.0378 -77.8686 108° East 389 448 12,800 -1,983 Descending Washington Center
07:38PM 39.0106 -77.7608 108° East 370 426 11,000 -942 Descending Washington Center
07:39PM 38.9814 -77.6450 108° East 322 371 10,900 -938 Descending Washington Center
07:40PM 38.9333 -77.5167 116° Southeast 303 349 9,000 -1,426 Descending Potomac TRACON
07:41PM 38.9000 -77.4500 123° Southeast 277 319 8,000 -632 Descending Potomac TRACON
07:42PM 38.8667 -77.3667 117° Southeast 268 308 7,800 -400 Descending Potomac TRACON
07:43PM 38.8667 -77.2833 90° East 241 277 7,200 -1,190 Descending Potomac TRACON
07:44PM 38.9333 -77.2833 360° North 233 268 5,300 -1,100 Descending Potomac TRACON
07:45PM 38.9833 -77.3167 333° Northwest 219 252 5,000 -150 Descending Potomac TRACON
07:46PM 39.0333 -77.3167 360° North 220 253 5,000 -476 Level Potomac TRACON
07:47PM 39.0333 -77.2500 90° East 172 198 4,000 -1,053 Descending Potomac TRACON
07:48PM 39.0167 -77.2000 113° Southeast 162 186 3,000 -526 Descending Potomac TRACON
07:49PM 38.9833 -77.1667 142° Southeast 157 181 3,000  Level Potomac TRACON

Login

Don't have an account? Register now (free) for customized features, flight alerts, and more!